Aeroporto :
LOGIN :

Iscrizione | Disclaimer

   EN    FR    IT 

 










Sommario :    VFR   VFR Marginale   IFR   IFR Intensivo   IFR Molto Intensivo
Visibilità : 
Base nubi : 
>= 8 km
>= 3000ft
5 / 8 km
1000 / 3000 ft
1500m / 5 km
500 / 1000 ft
800 / 1500m
200 / 500 ft
< 800m
< 200 ft
Simboli :   Temporali  Nebbia  Neve Forte  Precipitazioni Forti  Vento > 20 kt
SIGMETs :   Varie  Temporali  Ghiacco  Turbolenza  Onda orograficha  Ceneri Vulcaniche







- Altitudine del aeroporto : 1 ft
- Carte del aeroporto


EGCK - Caernarfon

ULTIMO METAR :
  • 210850Z 28005KT 9999 FEW015 SCT020 SCT037 13/09 Q1020

METARs OBSOLETI :
  • 210820Z 31004KT 9999 FEW018 SCT023 SCT036 13/08 Q1020
  • 210750Z AUTO 31004KT 9999 BKN013/// 13/08 Q1020
  • 210720Z AUTO VRB03KT 9999 BKN012/// 12/08 Q1020
  • 210650Z AUTO VRB01KT 9999 NCD 12/08 Q1020
  • 210620Z AUTO VRB02KT 9999 NCD 11/08 Q1020

TAF TAF EGCK
Valido dal 21 a 09 ore il 21 a 18 ore UTC


210802Z 2109/2118 29006KT 9999 BKN012
BECMG 2109/2112 FEW025
Nessun NOTAM noto per questo aeroporto.



MetMap, La meteo Aeronautica in un colpo d'occhio ! - Copyright ORBIFLY Dicembre 2007 - Disclaimer

ORBIFLY MET'MAP TEAM :

Programmazione e sviluppo : Alexandra Zaïnal
Concezione e sviluppo : Baudouin d'Aumeries
Co-Programmazione e sviluppo : Marc-Olivier Méhu
Supporto tecnico e logistico : Manuel Goepfert
Aiuto per la traduzione : Arnaldo La Scala

Contatto : metmap@orbifly.com




FONTI E CREDITI :

   NOAA